Time;durP1;ratioP1;P1;durP2;ratioP2;P2;SDS_P1;SDS_P2;PMS_P1;PMS_P2;Temp;Humidity;BMP_temperature;BMP_pressure;BME280_temperature;BME280_humidity;BME280_pressure;Samples;Min_cycle;Max_cycle;Signal;HPM_P1;HPM_P2
2021/09/20 00:01:04;;;;;;;9.67;6.67;;;12.50;99.90;;;;;;5051507;28;20298;-90
2021/09/20 00:03:31;;;;;;;15.67;7.80;;;12.30;99.90;;;;;;5050898;28;20282;-90
2021/09/20 00:05:58;;;;;;;10.83;7.40;;;12.30;99.90;;;;;;5041368;28;20730;-90
2021/09/20 00:08:24;;;;;;;8.73;6.53;;;12.20;99.90;;;;;;5048970;28;20206;-88
2021/09/20 00:10:52;;;;;;;9.03;6.20;;;12.10;99.90;;;;;;5051508;28;20642;-91
2021/09/20 00:13:19;;;;;;;9.07;6.57;;;12.20;99.90;;;;;;5045511;28;20214;-90
2021/09/20 00:15:47;;;;;;;9.13;6.97;;;12.00;99.90;;;;;;5041702;28;20247;-90
2021/09/20 00:18:14;;;;;;;10.33;6.40;;;12.10;99.90;;;;;;5053548;28;20215;-90
2021/09/20 00:20:41;;;;;;;9.93;6.70;;;12.10;99.90;;;;;;5054971;28;20242;-90
2021/09/20 00:23:08;;;;;;;10.10;6.53;;;12.20;99.90;;;;;;5054631;28;20568;-90
2021/09/20 00:25:35;;;;;;;9.83;6.37;;;12.10;99.90;;;;;;5055373;28;20746;-90
2021/09/20 00:28:02;;;;;;;8.17;5.90;;;12.20;99.90;;;;;;5054675;28;20279;-90
2021/09/20 00:30:29;;;;;;;10.33;5.80;;;12.30;99.90;;;;;;5054732;28;20217;-90
2021/09/20 00:32:57;;;;;;;9.93;6.27;;;12.20;99.90;;;;;;5054171;28;20199;-91
2021/09/20 00:35:25;;;;;;;9.63;6.30;;;12.20;99.90;;;;;;5054496;28;20280;-90
2021/09/20 00:37:52;;;;;;;7.33;5.20;;;12.20;99.90;;;;;;5054482;28;20338;-90
2021/09/20 00:40:19;;;;;;;6.90;4.70;;;12.20;99.90;;;;;;5054948;28;20207;-90
2021/09/20 00:42:46;;;;;;;9.23;5.07;;;12.20;99.90;;;;;;5055086;28;20672;-90
2021/09/20 00:45:13;;;;;;;7.00;4.43;;;12.20;99.90;;;;;;5054566;28;20223;-90
2021/09/20 00:47:40;;;;;;;6.03;4.30;;;12.30;99.90;;;;;;5053880;28;20298;-89
2021/09/20 00:50:10;;;;;;;5.97;3.97;;;12.30;99.90;;;;;;5054430;28;20226;-90
2021/09/20 00:52:37;;;;;;;5.07;4.27;;;12.30;99.90;;;;;;5053781;28;20217;-90
2021/09/20 00:55:06;;;;;;;6.70;4.00;;;12.20;99.90;;;;;;5054190;28;20590;-89
2021/09/20 00:57:33;;;;;;;5.10;3.67;;;12.20;99.90;;;;;;5054021;28;20242;-90
2021/09/20 01:00:01;;;;;;;5.17;4.00;;;12.10;99.90;;;;;;5054392;28;20281;-89
2021/09/20 01:02:28;;;;;;;4.23;3.60;;;12.20;99.90;;;;;;5053870;28;20218;-90
2021/09/20 01:04:55;;;;;;;6.67;3.97;;;12.20;99.90;;;;;;5054382;28;20643;-89
2021/09/20 01:07:23;;;;;;;4.37;3.90;;;12.20;99.90;;;;;;5053959;28;20285;-90
2021/09/20 01:09:50;;;;;;;5.70;4.00;;;12.10;99.90;;;;;;5052992;28;20628;-90
2021/09/20 01:12:17;;;;;;;5.40;3.93;;;12.10;99.90;;;;;;5054643;28;20225;-90
2021/09/20 01:14:44;;;;;;;6.23;3.83;;;12.10;99.90;;;;;;5053212;28;20226;-90
2021/09/20 01:17:11;;;;;;;5.97;4.00;;;12.10;99.90;;;;;;5054575;28;20679;-90
2021/09/20 01:19:38;;;;;;;4.87;3.53;;;12.10;99.90;;;;;;5053845;28;20255;-90
2021/09/20 01:22:10;;;;;;;6.13;3.30;;;12.10;99.90;;;;;;5053214;28;20340;-93
2021/09/20 01:24:39;;;;;;;5.10;3.33;;;12.10;99.90;;;;;;5053921;28;20303;-90
2021/09/20 01:27:06;;;;;;;6.87;3.80;;;12.10;99.90;;;;;;5054214;28;20633;-90
2021/09/20 01:29:34;;;;;;;5.20;3.60;;;12.10;99.90;;;;;;5052092;28;20617;-90
2021/09/20 01:32:01;;;;;;;4.87;3.50;;;12.00;99.90;;;;;;5054438;28;20226;-90
2021/09/20 01:34:29;;;;;;;3.70;3.33;;;11.90;99.90;;;;;;5053329;28;20306;-89
2021/09/20 01:36:56;;;;;;;6.80;4.20;;;11.90;99.90;;;;;;5054379;28;20234;-88
2021/09/20 01:39:26;;;;;;;8.63;4.30;;;11.90;99.90;;;;;;5053148;28;20289;-89
2021/09/20 01:41:56;;;;;;;5.33;3.90;;;11.90;99.90;;;;;;5054151;28;20289;-89
2021/09/20 01:44:23;;;;;;;7.10;4.23;;;11.90;99.90;;;;;;5053385;28;20286;-89
2021/09/20 01:46:51;;;;;;;6.50;4.10;;;11.90;99.90;;;;;;5054225;28;20210;-89
2021/09/20 01:49:19;;;;;;;6.23;4.23;;;11.90;99.90;;;;;;5050986;28;20296;-89
2021/09/20 01:51:46;;;;;;;7.23;4.20;;;12.00;99.90;;;;;;5050379;28;20206;-89
2021/09/20 01:54:14;;;;;;;6.53;3.90;;;11.90;99.90;;;;;;5052496;28;20240;-89
2021/09/20 01:56:56;;;;;;;6.20;4.20;;;11.90;99.90;;;;;;5054119;28;20748;-90
2021/09/20 01:59:23;;;;;;;6.47;3.77;;;11.80;99.90;;;;;;5053499;28;20268;-90
2021/09/20 02:01:50;;;;;;;6.10;3.63;;;11.80;99.90;;;;;;5053990;28;20246;-91
2021/09/20 02:04:17;;;;;;;7.30;4.10;;;11.80;99.90;;;;;;5053749;28;20294;-89
2021/09/20 02:06:44;;;;;;;6.60;3.40;;;11.80;99.90;;;;;;5052863;28;20209;-90
2021/09/20 02:09:12;;;;;;;4.03;3.63;;;11.80;99.90;;;;;;5052269;28;20203;-90
2021/09/20 02:11:39;;;;;;;5.67;3.80;;;11.70;99.90;;;;;;5053146;28;20234;-90
2021/09/20 02:14:10;;;;;;;6.67;3.87;;;11.70;99.90;;;;;;5049404;28;20229;-90
2021/09/20 02:16:37;;;;;;;5.10;3.60;;;11.80;99.90;;;;;;5049240;28;20265;-90
2021/09/20 02:19:04;;;;;;;5.57;3.57;;;11.80;99.90;;;;;;5051550;28;20264;-91
2021/09/20 02:21:31;;;;;;;5.43;3.90;;;11.70;99.90;;;;;;5045455;28;20290;-91
2021/09/20 02:23:58;;;;;;;4.83;3.30;;;11.90;99.90;;;;;;5048266;28;20295;-91
2021/09/20 02:26:25;;;;;;;6.43;3.87;;;11.70;99.90;;;;;;5048798;28;20222;-90
2021/09/20 02:28:52;;;;;;;4.03;3.40;;;11.80;99.90;;;;;;5042334;28;20234;-91
2021/09/20 02:31:21;;;;;;;6.60;3.40;;;11.80;99.90;;;;;;5051285;28;20290;-90
2021/09/20 02:33:48;;;;;;;8.03;3.53;;;11.80;99.90;;;;;;5052059;28;20660;-91
2021/09/20 02:36:15;;;;;;;5.17;3.57;;;11.70;99.90;;;;;;5043104;28;20352;-90
2021/09/20 02:38:42;;;;;;;4.23;3.33;;;11.70;99.90;;;;;;5051180;28;20278;-92
2021/09/20 02:41:10;;;;;;;6.17;3.30;;;11.90;99.90;;;;;;5050293;28;20207;-90
2021/09/20 02:43:37;;;;;;;3.60;2.83;;;11.80;99.90;;;;;;5050662;28;20207;-90
2021/09/20 02:46:04;;;;;;;5.20;3.37;;;11.80;99.90;;;;;;5050610;28;20700;-90
2021/09/20 02:48:33;;;;;;;6.47;3.57;;;11.80;99.90;;;;;;5051114;28;20744;-89
2021/09/20 02:51:00;;;;;;;4.80;3.10;;;11.80;99.90;;;;;;5049849;28;20207;-89
2021/09/20 02:53:28;;;;;;;6.83;3.07;;;11.80;99.90;;;;;;5050396;28;20648;-90
2021/09/20 02:55:55;;;;;;;5.90;3.40;;;11.80;99.90;;;;;;5050306;28;20235;-90
2021/09/20 02:58:22;;;;;;;5.97;3.57;;;11.80;99.90;;;;;;5049224;28;20243;-87
2021/09/20 03:00:49;;;;;;;6.07;3.00;;;11.80;99.90;;;;;;5049955;28;20235;-91
2021/09/20 03:03:16;;;;;;;5.83;3.13;;;11.80;99.90;;;;;;5048893;28;20231;-89
2021/09/20 03:05:44;;;;;;;6.43;3.07;;;11.80;99.90;;;;;;5051400;28;20231;-90
2021/09/20 03:08:11;;;;;;;7.67;3.20;;;11.80;99.90;;;;;;5049242;28;20249;-90
2021/09/20 03:10:38;;;;;;;5.73;3.00;;;11.80;99.90;;;;;;5051156;28;20730;-90
2021/09/20 03:13:05;;;;;;;6.77;2.90;;;11.70;99.90;;;;;;5051277;28;20214;-89
2021/09/20 03:15:32;;;;;;;4.93;2.80;;;11.80;99.90;;;;;;5044114;28;20263;-89
2021/09/20 03:17:59;;;;;;;5.93;3.33;;;11.80;99.90;;;;;;5050598;28;20290;-90
2021/09/20 03:20:27;;;;;;;6.00;3.30;;;11.80;99.90;;;;;;5050763;28;20238;-90
2021/09/20 03:22:55;;;;;;;4.27;2.87;;;11.70;99.90;;;;;;5050320;28;20241;-90
2021/09/20 03:25:22;;;;;;;3.73;3.13;;;11.70;99.90;;;;;;5050292;28;20225;-89
2021/09/20 03:27:50;;;;;;;5.27;3.00;;;11.70;99.90;;;;;;5050320;28;20653;-90
2021/09/20 03:30:18;;;;;;;4.73;3.00;;;11.70;99.90;;;;;;5049816;28;20530;-89
2021/09/20 03:32:46;;;;;;;4.77;2.93;;;11.70;99.90;;;;;;5050356;28;20667;-90
2021/09/20 03:35:15;;;;;;;3.67;2.80;;;11.70;99.90;;;;;;5050877;28;20741;-89
2021/09/20 03:37:42;;;;;;;5.83;2.93;;;11.70;99.90;;;;;;5050077;28;20235;-92
2021/09/20 03:40:13;;;;;;;6.43;3.27;;;11.70;99.90;;;;;;5046652;28;20613;-90
2021/09/20 03:42:41;;;;;;;4.70;3.03;;;11.70;99.90;;;;;;5048507;28;20209;-90
2021/09/20 03:45:09;;;;;;;4.77;3.10;;;11.80;99.90;;;;;;5050294;28;20271;-90
2021/09/20 03:47:36;;;;;;;4.57;2.63;;;11.60;99.90;;;;;;5049878;28;20215;-90
2021/09/20 03:50:03;;;;;;;4.63;2.70;;;11.70;99.90;;;;;;5035949;28;20227;-90
2021/09/20 03:52:30;;;;;;;7.00;3.50;;;11.60;99.90;;;;;;5050941;28;20226;-90
2021/09/20 03:54:57;;;;;;;5.83;2.60;;;11.60;99.90;;;;;;5049806;28;20230;-90
2021/09/20 03:57:26;;;;;;;7.93;3.40;;;11.60;99.90;;;;;;5051196;28;20241;-91
2021/09/20 03:59:52;;;;;;;7.93;3.10;;;11.70;99.90;;;;;;5055360;28;20602;-89
2021/09/20 04:02:19;;;;;;;5.03;3.20;;;11.60;99.90;;;;;;5053846;28;20205;-89
2021/09/20 04:04:46;;;;;;;4.47;3.27;;;11.60;99.90;;;;;;5055602;28;20599;-92
2021/09/20 04:07:13;;;;;;;4.87;3.27;;;11.50;99.90;;;;;;5052147;28;20218;-91
2021/09/20 04:09:41;;;;;;;6.47;2.80;;;11.60;99.90;;;;;;5047920;28;20583;-90
2021/09/20 04:12:09;;;;;;;5.07;2.87;;;11.50;99.90;;;;;;5048350;28;20302;-89
2021/09/20 04:14:38;;;;;;;5.03;3.40;;;11.50;99.90;;;;;;5055266;28;20235;-90
2021/09/20 04:17:06;;;;;;;5.43;3.23;;;11.50;99.90;;;;;;5054350;28;20723;-90
2021/09/20 04:19:33;;;;;;;4.10;3.17;;;11.40;99.90;;;;;;5053391;28;20210;-90
2021/09/20 04:22:00;;;;;;;4.80;3.10;;;11.50;99.90;;;;;;5055143;28;20229;-91
2021/09/20 04:24:27;;;;;;;4.80;3.33;;;11.50;99.90;;;;;;5055571;28;20213;-90
2021/09/20 04:26:54;;;;;;;9.20;3.07;;;11.60;99.90;;;;;;5057616;28;20290;-89
2021/09/20 04:29:21;;;;;;;5.03;2.90;;;11.50;99.90;;;;;;5055198;28;20286;-90
2021/09/20 04:31:49;;;;;;;5.53;3.10;;;11.50;99.90;;;;;;5056426;28;20282;-89
2021/09/20 04:34:16;;;;;;;7.13;3.20;;;11.60;99.90;;;;;;5054999;28;20294;-89
2021/09/20 04:36:43;;;;;;;5.57;3.40;;;11.60;99.90;;;;;;5054321;28;20223;-89
2021/09/20 04:39:10;;;;;;;10.63;3.33;;;11.60;99.90;;;;;;5054115;28;20206;-90
2021/09/20 04:41:39;;;;;;;5.07;3.00;;;11.50;99.90;;;;;;5055406;28;20944;-89
2021/09/20 04:44:06;;;;;;;4.13;2.80;;;11.50;99.90;;;;;;5054900;28;20276;-89
2021/09/20 04:46:33;;;;;;;5.20;3.53;;;11.50;99.90;;;;;;5054352;28;20802;-89
2021/09/20 04:49:01;;;;;;;4.77;3.10;;;11.50;99.90;;;;;;5054908;28;20227;-91
2021/09/20 04:51:28;;;;;;;5.33;2.73;;;11.50;99.90;;;;;;5053845;28;20218;-90
2021/09/20 04:53:55;;;;;;;5.73;2.87;;;11.60;99.90;;;;;;5054608;28;20292;-89
2021/09/20 04:56:22;;;;;;;6.63;3.30;;;11.50;99.90;;;;;;5055166;28;20223;-89
2021/09/20 04:58:49;;;;;;;3.27;2.60;;;11.60;99.90;;;;;;5049314;28;20203;-88
2021/09/20 05:01:16;;;;;;;4.73;2.83;;;11.50;99.90;;;;;;5054928;28;20226;-89
2021/09/20 05:03:43;;;;;;;5.70;3.37;;;11.50;99.90;;;;;;5054951;28;20233;-89
2021/09/20 05:06:11;;;;;;;5.47;2.90;;;11.60;99.90;;;;;;5054843;28;20237;-91
2021/09/20 05:08:38;;;;;;;5.10;2.90;;;11.50;99.90;;;;;;5054511;28;20719;-90
2021/09/20 05:11:05;;;;;;;3.60;2.83;;;11.50;99.90;;;;;;5055053;28;20237;-89
2021/09/20 05:13:32;;;;;;;4.70;2.93;;;11.60;99.90;;;;;;5054578;28;20205;-91
2021/09/20 05:15:58;;;;;;;4.30;2.70;;;11.40;99.90;;;;;;5053939;28;20229;-89
2021/09/20 05:18:25;;;;;;;5.40;2.93;;;11.50;99.90;;;;;;5051564;28;20207;-88
2021/09/20 05:20:52;;;;;;;6.77;3.20;;;11.50;99.90;;;;;;5053054;28;20293;-89
2021/09/20 05:23:20;;;;;;;5.80;3.13;;;11.60;99.90;;;;;;5053526;28;20290;-89
2021/09/20 05:25:47;;;;;;;7.20;3.40;;;11.50;99.90;;;;;;5053739;28;20305;-89
2021/09/20 05:28:14;;;;;;;6.70;2.80;;;11.40;99.90;;;;;;5053808;28;20286;-89
2021/09/20 05:30:41;;;;;;;5.43;2.70;;;11.50;99.90;;;;;;5055061;28;20238;-89
2021/09/20 05:33:08;;;;;;;5.50;2.90;;;11.50;99.90;;;;;;5053464;28;20639;-90
2021/09/20 05:35:35;;;;;;;5.20;3.10;;;11.50;99.90;;;;;;5054610;28;20326;-89
2021/09/20 05:38:02;;;;;;;5.63;3.10;;;11.50;99.90;;;;;;5053559;28;20231;-89
2021/09/20 05:40:32;;;;;;;7.07;2.87;;;11.50;99.90;;;;;;5054853;28;20282;-90
2021/09/20 05:42:59;;;;;;;5.13;3.17;;;11.50;99.90;;;;;;5053137;28;20286;-89
2021/09/20 05:45:27;;;;;;;3.83;2.87;;;11.50;99.90;;;;;;5054185;28;20223;-89
2021/09/20 05:47:55;;;;;;;5.00;3.20;;;11.50;99.90;;;;;;5053684;28;20639;-89
2021/09/20 05:50:23;;;;;;;3.70;2.90;;;11.60;99.90;;;;;;5054461;28;20235;-89
2021/09/20 05:52:50;;;;;;;7.00;2.80;;;11.60;99.90;;;;;;5052440;28;20606;-89
2021/09/20 05:55:17;;;;;;;5.13;3.17;;;11.50;99.90;;;;;;5054016;28;20231;-89
2021/09/20 05:57:45;;;;;;;4.93;2.80;;;11.60;99.90;;;;;;5053536;28;20230;-90
2021/09/20 06:00:13;;;;;;;5.73;3.30;;;11.70;99.90;;;;;;5053589;28;20286;-90
2021/09/20 06:02:41;;;;;;;5.23;3.13;;;11.60;99.90;;;;;;5053684;28;20678;-89
2021/09/20 06:05:11;;;;;;;8.23;3.33;;;11.60;99.90;;;;;;5053797;28;20614;-89
2021/09/20 06:07:38;;;;;;;4.80;3.03;;;11.70;99.90;;;;;;5053381;28;20209;-87
2021/09/20 06:10:06;;;;;;;4.87;2.93;;;11.70;99.90;;;;;;5052128;28;20289;-89
2021/09/20 06:12:33;;;;;;;5.93;2.73;;;11.80;99.90;;;;;;5052890;28;20214;-89
2021/09/20 06:15:02;;;;;;;6.30;2.77;;;11.70;99.90;;;;;;5052798;28;20229;-89
2021/09/20 06:17:29;;;;;;;7.10;2.73;;;11.90;99.90;;;;;;5052860;28;20748;-89
2021/09/20 06:19:56;;;;;;;5.67;3.00;;;11.80;99.90;;;;;;5052991;28;20289;-89
2021/09/20 06:22:23;;;;;;;4.33;3.20;;;11.90;99.90;;;;;;5051553;28;20295;-90
2021/09/20 06:24:50;;;;;;;5.93;2.93;;;11.80;99.90;;;;;;5053034;28;20225;-89
2021/09/20 06:27:17;;;;;;;5.57;3.30;;;11.80;99.90;;;;;;5052724;28;20199;-89
2021/09/20 06:29:44;;;;;;;8.60;3.50;;;11.80;99.90;;;;;;5052376;28;20295;-89
2021/09/20 06:32:12;;;;;;;4.47;2.80;;;11.90;99.90;;;;;;5052303;28;20207;-89
2021/09/20 06:34:39;;;;;;;7.27;3.33;;;11.90;99.90;;;;;;5052699;28;20711;-89
2021/09/20 06:37:06;;;;;;;4.53;2.93;;;11.90;99.90;;;;;;5052714;28;20314;-89
2021/09/20 06:39:33;;;;;;;8.20;3.27;;;11.90;99.90;;;;;;5053017;28;20656;-89
2021/09/20 06:42:01;;;;;;;5.70;3.27;;;11.90;99.90;;;;;;5052744;28;20532;-90
2021/09/20 06:44:28;;;;;;;5.50;3.10;;;12.00;99.90;;;;;;5053317;28;20222;-89
2021/09/20 06:46:56;;;;;;;5.37;2.87;;;12.00;99.90;;;;;;5051982;28;20458;-89
2021/09/20 06:49:24;;;;;;;4.70;3.30;;;12.10;99.90;;;;;;5052617;28;20639;-89
2021/09/20 06:51:51;;;;;;;5.40;3.47;;;12.00;99.90;;;;;;5051055;28;20233;-89
2021/09/20 06:54:18;;;;;;;4.10;2.93;;;12.10;99.90;;;;;;5052122;28;20203;-89
2021/09/20 06:56:45;;;;;;;3.67;3.00;;;12.10;99.90;;;;;;5052432;28;20233;-89
2021/09/20 06:59:13;;;;;;;4.93;3.03;;;12.10;99.90;;;;;;5052086;28;20260;-90
2021/09/20 07:01:40;;;;;;;5.47;2.93;;;12.10;99.90;;;;;;5052529;28;20209;-91
2021/09/20 07:04:07;;;;;;;7.00;3.47;;;12.20;99.90;;;;;;5052261;28;20241;-88
2021/09/20 07:06:35;;;;;;;7.80;3.53;;;12.20;99.90;;;;;;5052457;28;20301;-89
2021/09/20 07:09:02;;;;;;;3.73;2.70;;;12.20;99.90;;;;;;5050965;28;20588;-90
2021/09/20 07:11:29;;;;;;;6.37;3.90;;;12.30;99.90;;;;;;5051318;28;20210;-89
2021/09/20 07:13:56;;;;;;;4.47;2.80;;;12.30;99.90;;;;;;5051870;28;20282;-89
2021/09/20 07:16:23;;;;;;;5.53;3.27;;;12.30;99.90;;;;;;5052331;28;20227;-89
2021/09/20 07:18:50;;;;;;;5.70;3.30;;;12.30;99.90;;;;;;5051965;28;20249;-90
2021/09/20 07:21:21;;;;;;;5.63;3.13;;;12.30;99.90;;;;;;5042845;28;20202;-89
2021/09/20 07:23:50;;;;;;;5.97;3.77;;;12.30;99.90;;;;;;5045498;28;20644;-90
2021/09/20 07:26:17;;;;;;;5.67;3.30;;;12.40;99.90;;;;;;5050734;28;20218;-89
2021/09/20 07:28:44;;;;;;;6.07;3.60;;;12.30;99.90;;;;;;5051453;28;20238;-89
2021/09/20 07:31:11;;;;;;;5.17;3.60;;;12.40;99.90;;;;;;5049867;28;20195;-89
2021/09/20 07:33:38;;;;;;;5.77;3.13;;;12.50;99.90;;;;;;5051861;28;20212;-89
2021/09/20 07:36:05;;;;;;;6.63;3.63;;;12.50;99.90;;;;;;5051789;28;20309;-90
2021/09/20 07:38:32;;;;;;;6.67;3.57;;;12.60;99.90;;;;;;5050634;28;20578;-89
2021/09/20 07:41:01;;;;;;;8.83;3.53;;;12.60;99.90;;;;;;5051938;28;20207;-89
2021/09/20 07:43:28;;;;;;;7.77;3.60;;;12.50;99.90;;;;;;5050576;28;20195;-89
2021/09/20 07:45:54;;;;;;;8.17;4.10;;;12.50;99.90;;;;;;5051922;28;20322;-89
2021/09/20 07:48:21;;;;;;;4.90;3.70;;;12.60;99.90;;;;;;5051419;28;20207;-89
2021/09/20 07:50:49;;;;;;;5.67;3.83;;;12.70;99.90;;;;;;5050656;28;20207;-90
2021/09/20 07:53:16;;;;;;;5.20;3.27;;;12.70;99.90;;;;;;5062698;28;20210;-89
2021/09/20 07:55:43;;;;;;;5.60;3.47;;;12.70;99.90;;;;;;5070904;28;20305;-88
2021/09/20 07:58:13;;;;;;;5.80;3.90;;;12.80;99.90;;;;;;5061282;28;20195;-89
2021/09/20 08:00:41;;;;;;;5.80;3.60;;;12.80;99.90;;;;;;5051705;28;20676;-90
2021/09/20 08:03:10;;;;;;;7.83;3.50;;;12.90;99.90;;;;;;5052785;28;20623;-89
2021/09/20 08:05:40;;;;;;;8.17;3.47;;;12.90;99.90;;;;;;5051309;28;20288;-89
2021/09/20 08:08:07;;;;;;;5.23;3.17;;;12.90;99.90;;;;;;5051345;28;20215;-89
2021/09/20 08:10:34;;;;;;;5.50;3.70;;;12.90;99.90;;;;;;5050427;28;20277;-89
2021/09/20 08:13:02;;;;;;;6.67;3.10;;;13.00;99.90;;;;;;5051481;28;20238;-91
2021/09/20 08:15:31;;;;;;;4.30;3.10;;;13.00;99.90;;;;;;5050123;28;20273;-91
2021/09/20 08:17:58;;;;;;;4.90;3.00;;;13.10;99.90;;;;;;5051032;28;20215;-90
2021/09/20 08:20:26;;;;;;;5.97;3.27;;;13.20;99.90;;;;;;5045631;28;20751;-90
2021/09/20 08:22:53;;;;;;;6.40;3.33;;;13.20;99.90;;;;;;5039515;28;20212;-90
2021/09/20 08:25:21;;;;;;;5.87;3.30;;;13.30;99.90;;;;;;5036329;28;20247;-90
2021/09/20 08:27:49;;;;;;;5.03;3.23;;;13.30;99.90;;;;;;5036362;28;20207;-89
2021/09/20 08:30:17;;;;;;;7.17;3.60;;;13.40;99.90;;;;;;5041558;28;20294;-91
2021/09/20 08:32:45;;;;;;;6.23;3.33;;;13.40;99.90;;;;;;5045828;28;20203;-89
2021/09/20 08:35:12;;;;;;;3.73;2.80;;;13.30;99.90;;;;;;5039902;28;20696;-89
2021/09/20 08:37:40;;;;;;;6.63;3.20;;;13.40;99.90;;;;;;5037155;28;20665;-89
2021/09/20 08:40:08;;;;;;;6.23;3.43;;;13.40;99.90;;;;;;5043608;28;20287;-89
2021/09/20 08:42:35;;;;;;;7.20;2.97;;;13.50;99.90;;;;;;5049466;28;20209;-90
2021/09/20 08:45:03;;;;;;;5.30;3.20;;;13.50;99.90;;;;;;5041666;28;20314;-90
2021/09/20 08:47:31;;;;;;;4.93;3.03;;;13.60;99.90;;;;;;5047830;28;20205;-91
2021/09/20 08:50:00;;;;;;;3.67;2.97;;;13.60;99.90;;;;;;5039936;28;20204;-91
2021/09/20 08:52:27;;;;;;;5.53;3.10;;;13.60;99.90;;;;;;5045545;28;20214;-89
2021/09/20 08:54:55;;;;;;;4.70;3.00;;;13.70;99.90;;;;;;5046666;28;20227;-90
2021/09/20 08:57:22;;;;;;;4.83;2.80;;;13.80;99.90;;;;;;5055525;28;20230;-90
2021/09/20 08:59:49;;;;;;;3.33;2.83;;;14.00;99.90;;;;;;5055077;28;20210;-90
2021/09/20 09:02:19;;;;;;;3.87;2.43;;;14.10;99.90;;;;;;5054732;28;20294;-90
2021/09/20 09:04:46;;;;;;;3.73;2.63;;;14.00;99.90;;;;;;5054964;28;20691;-90
2021/09/20 09:07:17;;;;;;;4.57;2.80;;;14.10;99.90;;;;;;5053668;28;20671;-90
2021/09/20 09:09:47;;;;;;;4.87;2.20;;;14.10;99.90;;;;;;5053181;28;20242;-89
2021/09/20 09:12:20;;;;;;;5.33;2.67;;;14.20;99.90;;;;;;5053547;28;20739;-90
2021/09/20 09:14:49;;;;;;;5.03;2.80;;;14.30;99.90;;;;;;5054528;28;20715;-92
2021/09/20 09:17:20;;;;;;;7.40;2.97;;;14.30;99.90;;;;;;5050097;28;20254;-89
2021/09/20 09:19:52;;;;;;;5.20;2.77;;;14.60;99.90;;;;;;5054566;28;20262;-90
2021/09/20 09:22:21;;;;;;;4.83;2.50;;;14.70;99.90;;;;;;5054434;28;20225;-90
2021/09/20 09:25:01;;;;;;;3.53;2.50;;;14.80;99.90;;;;;;5052992;28;20219;-90
2021/09/20 09:27:30;;;;;;;3.57;2.40;;;14.80;99.90;;;;;;5053988;28;20288;-91
2021/09/20 09:30:08;;;;;;;4.60;2.40;;;15.00;99.90;;;;;;5052830;28;20210;-90
2021/09/20 09:32:35;;;;;;;6.13;2.33;;;14.90;99.90;;;;;;5053786;28;20211;-89
2021/09/20 09:35:05;;;;;;;6.57;2.60;;;14.80;99.90;;;;;;5044858;28;20269;-90
2021/09/20 09:37:35;;;;;;;3.57;2.03;;;15.00;99.90;;;;;;5051616;28;20234;-90
2021/09/20 09:40:28;;;;;;;3.13;2.60;;;15.10;99.90;;;;;;5053287;28;20226;-90
2021/09/20 09:43:00;;;;;;;5.83;2.53;;;15.00;99.90;;;;;;5054276;28;20291;-89
2021/09/20 09:45:31;;;;;;;4.20;2.40;;;15.10;99.90;;;;;;5054315;28;20310;-89
2021/09/20 09:48:16;;;;;;;2.43;1.90;;;15.20;99.90;;;;;;5053993;28;20281;-90
2021/09/20 09:50:49;;;;;;;4.63;2.60;;;15.30;99.90;;;;;;5054238;28;20230;-89
2021/09/20 09:53:25;;;;;;;3.37;2.33;;;15.20;99.90;;;;;;5054719;28;20217;-89
2021/09/20 09:55:52;;;;;;;3.63;2.07;;;15.10;99.90;;;;;;5053836;28;20265;-90
2021/09/20 09:58:21;;;;;;;2.60;1.80;;;15.20;99.90;;;;;;5054060;28;20667;-90
2021/09/20 10:00:48;;;;;;;2.87;1.90;;;15.30;99.90;;;;;;5049634;28;20584;-89
2021/09/20 10:03:16;;;;;;;3.13;1.90;;;14.90;99.90;;;;;;5054091;28;20216;-88
2021/09/20 10:36:50;;;;;;;2.80;2.30;;;14.90;99.90;;;;;;5109013;22;20230;-81
2021/09/20 10:39:17;;;;;;;5.33;2.00;;;15.30;99.90;;;;;;5055599;28;20218;-80
2021/09/20 10:41:44;;;;;;;4.17;2.37;;;15.10;99.90;;;;;;5056416;28;20207;-79
2021/09/20 10:44:13;;;;;;;3.07;2.30;;;15.00;99.90;;;;;;5055325;28;20293;-81
2021/09/20 10:46:42;;;;;;;4.57;2.40;;;15.10;99.90;;;;;;5056588;28;20258;-79
2021/09/20 10:49:19;;;;;;;3.87;2.00;;;15.00;99.90;;;;;;5055646;28;20234;-82
2021/09/20 10:52:03;;;;;;;5.33;2.40;;;15.10;99.90;;;;;;5055505;28;20274;-80
2021/09/20 10:54:30;;;;;;;4.83;2.20;;;15.10;99.90;;;;;;5054759;28;20270;-80
2021/09/20 10:57:11;;;;;;;4.00;2.10;;;15.10;99.90;;;;;;5055840;28;20318;-81
2021/09/20 10:59:38;;;;;;;3.57;2.10;;;15.10;99.90;;;;;;5053702;28;20568;-80
2021/09/20 11:02:17;;;;;;;2.33;1.50;;;15.10;99.90;;;;;;5049386;28;20295;-80
2021/09/20 11:04:44;;;;;;;1.77;1.40;;;15.20;99.90;;;;;;5054299;28;20719;-80
2021/09/20 11:07:22;;;;;;;2.67;1.77;;;15.30;99.90;;;;;;5055611;28;20215;-81
2021/09/20 11:09:52;;;;;;;3.17;1.90;;;15.50;99.90;;;;;;5056421;28;20606;-80
2021/09/20 11:12:22;;;;;;;2.53;1.93;;;15.40;99.90;;;;;;5056417;28;20725;-81
2021/09/20 11:15:05;;;;;;;1.87;1.60;;;15.30;99.90;;;;;;5055164;28;20274;-81
2021/09/20 11:17:46;;;;;;;1.93;1.83;;;15.40;99.90;;;;;;5056101;28;20738;-81
2021/09/20 11:20:25;;;;;;;3.57;2.07;;;15.40;99.90;;;;;;5055927;28;20226;-80
2021/09/20 11:23:21;;;;;;;7.57;1.90;;;15.40;99.90;;;;;;5055699;28;20213;-79
2021/09/20 11:26:16;;;;;;;3.27;2.17;;;15.40;99.90;;;;;;5056295;28;20203;-79
2021/09/20 11:28:47;;;;;;;5.27;2.10;;;15.40;99.90;;;;;;5055169;28;20234;-79
2021/09/20 11:31:14;;;;;;;2.17;1.97;;;15.30;99.90;;;;;;5056090;28;20191;-80
2021/09/20 11:33:42;;;;;;;2.90;1.97;;;15.40;99.90;;;;;;5056052;28;20241;-79
2021/09/20 11:36:19;;;;;;;2.57;1.70;;;15.40;99.90;;;;;;5054985;28;20271;-79
2021/09/20 11:38:49;;;;;;;3.70;2.33;;;15.40;99.90;;;;;;5055101;28;20293;-80
2021/09/20 11:41:24;;;;;;;3.80;1.97;;;15.20;99.90;;;;;;5054848;28;20230;-80
2021/09/20 11:43:53;;;;;;;5.70;2.50;;;15.20;99.90;;;;;;5052598;28;20291;-80
2021/09/20 11:46:25;;;;;;;2.10;1.90;;;15.20;99.90;;;;;;5049348;28;20327;-80
2021/09/20 11:49:03;;;;;;;2.77;2.10;;;15.30;99.90;;;;;;5037751;28;20204;-80
2021/09/20 11:51:30;;;;;;;3.83;2.20;;;15.40;99.90;;;;;;5038459;28;20229;-81
2021/09/20 11:53:58;;;;;;;3.67;2.13;;;15.40;99.90;;;;;;5055869;28;20188;-79
2021/09/20 11:56:27;;;;;;;3.27;1.90;;;15.40;99.90;;;;;;5047597;28;20628;-81
2021/09/20 11:58:55;;;;;;;3.43;2.30;;;15.50;99.90;;;;;;5034911;28;20255;-80
2021/09/20 12:01:23;;;;;;;5.90;2.30;;;15.40;99.90;;;;;;5046529;28;20290;-80
2021/09/20 12:03:51;;;;;;;4.10;2.60;;;15.40;99.90;;;;;;5054976;28;20207;-80
2021/09/20 12:06:18;;;;;;;6.20;2.77;;;15.40;99.90;;;;;;5053928;28;20242;-79
2021/09/20 12:08:45;;;;;;;4.47;2.40;;;15.50;99.90;;;;;;5052042;28;20203;-80
2021/09/20 12:11:22;;;;;;;3.37;2.40;;;15.70;99.90;;;;;;5045500;28;20294;-81
2021/09/20 12:13:49;;;;;;;4.83;2.50;;;15.50;99.90;;;;;;5046010;28;20207;-81
2021/09/20 12:16:16;;;;;;;2.83;2.33;;;15.60;99.90;;;;;;5048993;28;20263;-80
2021/09/20 12:18:43;;;;;;;3.60;2.10;;;15.50;99.90;;;;;;5043371;28;20230;-82
2021/09/20 12:21:13;;;;;;;3.70;2.73;;;15.50;99.90;;;;;;5045526;28;20242;-82
2021/09/20 12:23:42;;;;;;;3.63;2.30;;;15.40;99.90;;;;;;5047602;28;20651;-79
2021/09/20 12:26:10;;;;;;;4.03;2.40;;;15.40;99.90;;;;;;5039017;28;20823;-80
2021/09/20 12:28:40;;;;;;;3.63;2.33;;;15.30;99.90;;;;;;5026796;28;20231;-82
2021/09/20 12:31:11;;;;;;;4.77;2.30;;;15.30;99.90;;;;;;5027837;28;20287;-80
2021/09/20 12:33:50;;;;;;;4.50;2.23;;;15.20;99.90;;;;;;5026634;28;20216;-80
2021/09/20 12:36:19;;;;;;;3.87;2.40;;;15.10;99.90;;;;;;5043647;28;20269;-81
2021/09/20 12:38:46;;;;;;;4.77;2.27;;;15.10;99.90;;;;;;5044279;28;20309;-80
2021/09/20 12:41:15;;;;;;;4.20;2.13;;;15.10;99.90;;;;;;5047537;28;20681;-81
2021/09/20 12:43:44;;;;;;;6.97;3.30;;;15.10;99.90;;;;;;5047742;28;20203;-80
2021/09/20 12:46:17;;;;;;;4.57;2.60;;;15.10;99.90;;;;;;5047335;28;20582;-82
2021/09/20 12:48:47;;;;;;;5.70;2.67;;;15.00;99.90;;;;;;5046982;28;20297;-82
2021/09/20 12:51:16;;;;;;;4.37;2.77;;;15.10;99.90;;;;;;5046314;28;20377;-82
2021/09/20 12:53:45;;;;;;;3.63;2.53;;;15.00;99.90;;;;;;5045692;28;20436;-80
2021/09/20 12:56:15;;;;;;;3.73;2.30;;;15.00;99.90;;;;;;5044912;28;20762;-81
2021/09/20 12:58:49;;;;;;;3.93;2.60;;;15.10;99.90;;;;;;5046046;28;20323;-81
2021/09/20 13:01:23;;;;;;;3.50;2.53;;;15.00;99.90;;;;;;5045748;28;20546;-82
2021/09/20 13:03:59;;;;;;;10.13;3.30;;;15.00;99.90;;;;;;5044756;28;20213;-84
2021/09/20 13:06:26;;;;;;;11.27;3.30;;;15.00;99.90;;;;;;5025501;28;20223;-82
2021/09/20 13:09:01;;;;;;;5.47;2.73;;;15.00;99.90;;;;;;5043896;28;20261;-82
2021/09/20 13:11:38;;;;;;;3.00;2.37;;;14.90;99.90;;;;;;5043408;28;20609;-82
2021/09/20 13:14:19;;;;;;;4.17;2.50;;;14.90;99.90;;;;;;5044279;28;20203;-82
2021/09/20 13:16:46;;;;;;;5.07;2.00;;;15.00;99.90;;;;;;5042718;28;20231;-82
2021/09/20 13:19:13;;;;;;;4.23;2.50;;;15.00;99.90;;;;;;5043643;28;20740;-82
2021/09/20 13:21:40;;;;;;;4.47;2.47;;;15.20;99.90;;;;;;5046056;28;20298;-80
2021/09/20 13:24:08;;;;;;;3.23;2.50;;;15.20;99.90;;;;;;5043247;28;20215;-81